Al Thakhira — C6UT5 — position and weather

sailwx.info

Track history (hours):
 
Tides and Currents Weather Stations Pressure Air Temp Water Temp Dewpoint Dewpoint Depression Visibility Wind Speed Wind Dir Waves Ship Positions

Al Thakhira

Last reported at 2017-Nov-23 22:03 UTC. Time now 2017-Nov-24 11:43 UTC.
Position N 44°11' E 013°14'.

Length 283 m; draft 9.5 m.

Type: Ship (hazmat cat A). MMSI: 309975000.

Date/timePositionNaut miles runAvg speedWind from/ knotsBaromVisibWave heightAir tempDewpointWater temp
2017-Nov-23 22:03N 44°11' E 013°14'116.1
2017-Nov-23 22:00N 44°12' E 013°13'916.5
2017-Nov-23 21:27N 44°20' E 013°09'816.5
2017-Nov-23 21:00N 44°28' E 013°06'816.5
2017-Nov-23 20:30N 44°35' E 013°02'816.8
2017-Nov-23 20:00N 44°43' E 012°59'816.6
2017-Nov-23 19:30N 44°51' E 012°53'816.7
2017-Nov-23 19:00N 44°58' E 012°47'815.9
2017-Nov-23 18:30N 45°04' E 012°40'4 7.5
2017-Nov-23 18:00N 45°07' E 012°37'0 0.4
2017-Nov-23 17:30N 45°07' E 012°36'1 1.4
2017-Nov-23 17:00N 45°06' E 012°36'1 2.2
2017-Nov-23 16:30N 45°06' E 012°35'0 0.0
2017-Nov-23 15:53N 45°06' E 012°35'0 0.0
2017-Nov-23 15:29N 45°06' E 012°35'0 0.0
2017-Nov-23 14:59N 45°06' E 012°35'0 0.0
2017-Nov-23 14:17N 45°06' E 012°35'0 0.0
2017-Nov-23 13:58N 45°06' E 012°35'0 0.0
2017-Nov-23 13:28N 45°06' E 012°35'0 0.0
2017-Nov-23 12:59N 45°06' E 012°35'0 0.0
2017-Nov-23 12:25N 45°06' E 012°35'0 0.0
2017-Nov-23 11:58N 45°06' E 012°35'0 0.0
2017-Nov-23 11:22N 45°06' E 012°35'0 0.0
2017-Nov-23 10:58N 45°06' E 012°35'0 0.0
2017-Nov-23 10:25N 45°06' E 012°35'0 0.0
2017-Nov-23 09:58N 45°06' E 012°35'0 0.0
2017-Nov-23 08:43N 45°06' E 012°35'0 0.0
2017-Nov-23 08:28N 45°06' E 012°35'0 0.0
2017-Nov-23 07:58N 45°06' E 012°35'0 0.0
2017-Nov-23 07:28N 45°06' E 012°35'0 0.0
2017-Nov-23 06:58N 45°06' E 012°35'0 0.0
2017-Nov-23 06:19N 45°06' E 012°35'0 0.0
2017-Nov-23 05:43N 45°06' E 012°35'0 0.0
2017-Nov-23 05:22N 45°06' E 012°35'0 0.0
2017-Nov-23 04:58N 45°06' E 012°35'0 0.0
2017-Nov-23 04:25N 45°06' E 012°35'0 0.0
2017-Nov-23 03:58N 45°06' E 012°35'0 0.0
2017-Nov-23 03:19N 45°06' E 012°35'0 0.0
2017-Nov-23 02:58N 45°06' E 012°35'0 0.0
2017-Nov-23 02:28N 45°06' E 012°35'0 0.0
2017-Nov-23 01:34N 45°06' E 012°35'0 0.0
2017-Nov-23 01:28N 45°06' E 012°35'0 0.0
2017-Nov-23 00:58N 45°06' E 012°35'0 0.0
2017-Nov-23 00:25N 45°06' E 012°35'0 0.0
2017-Nov-22 23:58N 45°06' E 012°35'0 0.0
2017-Nov-22 23:28N 45°06' E 012°35'0 0.0
2017-Nov-22 22:58N 45°06' E 012°35'0 0.0
2017-Nov-22 22:25N 45°06' E 012°35'0 0.0
2017-Nov-22 21:58N 45°06' E 012°35'0 0.0
2017-Nov-22 21:28N 45°06' E 012°35'0 0.0
2017-Nov-22 20:58N 45°06' E 012°35'0 0.0
2017-Nov-22 20:28N 45°06' E 012°35'0 0.0
2017-Nov-22 19:52N 45°06' E 012°35'0 0.0
2017-Nov-22 19:16N 45°06' E 012°35'49 5.3
2017-Nov-22 10:00N 44°24' E 013°12'29112.1 090 / 81020.7 5.4 15.0 9.716.0
2017-Nov-21 10:00N 41°00' E 017°54'30112.5 200 / 91021.010.8 15.0 5.317.0
2017-Nov-20 10:00N 36°42' E 021°12'14812.3 330 / 341012.9 5.4 17.0 7.921.0
2017-Nov-19 22:00N 35°00' E 023°24'332 9.8 330 / 211012.4 5.4 18.013.121.0
2017-Nov-18 12:00N 32°36' E 029°24'0 0.0 310 / 51013.2 5.4 22.022.022.0
2017-Nov-18 09:00N 32°36' E 029°24'125 9.5 310 / 61011.6 5.4 21.018.022.0
2017-Nov-17 19:48N 31°52' E 031°42'414.3
2017-Nov-17 19:31N 31°50' E 031°47'1114.4
2017-Nov-17 18:44N 31°46' E 031°59'1513.7
2017-Nov-17 17:36N 31°34' E 032°11'113.6
2017-Nov-17 17:30N 31°33' E 032°13'713.5
2017-Nov-17 17:01N 31°30' E 032°19'611.9
2017-Nov-17 16:30N 31°26' E 032°24'611.5
2017-Nov-17 16:00N 31°20' E 032°23'510.5
2017-Nov-17 15:30N 31°15' E 032°21'56 8.7
2017-Nov-17 09:04N 30°19' E 032°25'0 7.6
2017-Nov-17 09:00N 30°19' E 032°25'5 7.4
2017-Nov-17 08:22N 30°16' E 032°29'12 7.8
2017-Nov-17 06:50N 30°05' E 032°34'49010.7
2017-Nov-15 09:00N 23°00' E 037°06'   350 / 201010.7 5.4 28.023.929.0
Track history (hours):
 
Tides and Currents Weather Stations Pressure Air Temp Water Temp Dewpoint Dewpoint Depression Visibility Wind Speed Wind Dir Waves Ship Positions

Al Thakhira

Last reported at 2017-Nov-23 22:03 UTC. Time now 2017-Nov-24 11:43 UTC.
Position N 44°11' E 013°14'.

Length 283 m; draft 9.5 m.

Type: Ship (hazmat cat A). MMSI: 309975000.

Date/timePositionNaut miles runAvg speedWind from/ knotsBaromVisibWave heightAir tempDewpointWater temp
2017-Nov-23 22:03N 44°11' E 013°14'116.1
2017-Nov-23 22:00N 44°12' E 013°13'916.5
2017-Nov-23 21:27N 44°20' E 013°09'816.5
2017-Nov-23 21:00N 44°28' E 013°06'816.5
2017-Nov-23 20:30N 44°35' E 013°02'816.8
2017-Nov-23 20:00N 44°43' E 012°59'816.6
2017-Nov-23 19:30N 44°51' E 012°53'816.7
2017-Nov-23 19:00N 44°58' E 012°47'815.9
2017-Nov-23 18:30N 45°04' E 012°40'4 7.5
2017-Nov-23 18:00N 45°07' E 012°37'0 0.4
2017-Nov-23 17:30N 45°07' E 012°36'1 1.4
2017-Nov-23 17:00N 45°06' E 012°36'1 2.2
2017-Nov-23 16:30N 45°06' E 012°35'0 0.0
2017-Nov-23 15:53N 45°06' E 012°35'0 0.0
2017-Nov-23 15:29N 45°06' E 012°35'0 0.0
2017-Nov-23 14:59N 45°06' E 012°35'0 0.0
2017-Nov-23 14:17N 45°06' E 012°35'0 0.0
2017-Nov-23 13:58N 45°06' E 012°35'0 0.0
2017-Nov-23 13:28N 45°06' E 012°35'0 0.0
2017-Nov-23 12:59N 45°06' E 012°35'0 0.0
2017-Nov-23 12:25N 45°06' E 012°35'0 0.0
2017-Nov-23 11:58N 45°06' E 012°35'0 0.0
2017-Nov-23 11:22N 45°06' E 012°35'0 0.0
2017-Nov-23 10:58N 45°06' E 012°35'0 0.0
2017-Nov-23 10:25N 45°06' E 012°35'0 0.0
2017-Nov-23 09:58N 45°06' E 012°35'0 0.0
2017-Nov-23 08:43N 45°06' E 012°35'0 0.0
2017-Nov-23 08:28N 45°06' E 012°35'0 0.0
2017-Nov-23 07:58N 45°06' E 012°35'0 0.0
2017-Nov-23 07:28N 45°06' E 012°35'0 0.0
2017-Nov-23 06:58N 45°06' E 012°35'0 0.0
2017-Nov-23 06:19N 45°06' E 012°35'0 0.0
2017-Nov-23 05:43N 45°06' E 012°35'0 0.0
2017-Nov-23 05:22N 45°06' E 012°35'0 0.0
2017-Nov-23 04:58N 45°06' E 012°35'0 0.0
2017-Nov-23 04:25N 45°06' E 012°35'0 0.0
2017-Nov-23 03:58N 45°06' E 012°35'0 0.0
2017-Nov-23 03:19N 45°06' E 012°35'0 0.0
2017-Nov-23 02:58N 45°06' E 012°35'0 0.0
2017-Nov-23 02:28N 45°06' E 012°35'0 0.0
2017-Nov-23 01:34N 45°06' E 012°35'0 0.0
2017-Nov-23 01:28N 45°06' E 012°35'0 0.0
2017-Nov-23 00:58N 45°06' E 012°35'0 0.0
2017-Nov-23 00:25N 45°06' E 012°35'0 0.0
2017-Nov-22 23:58N 45°06' E 012°35'0 0.0
2017-Nov-22 23:28N 45°06' E 012°35'0 0.0
2017-Nov-22 22:58N 45°06' E 012°35'0 0.0
2017-Nov-22 22:25N 45°06' E 012°35'0 0.0
2017-Nov-22 21:58N 45°06' E 012°35'0 0.0
2017-Nov-22 21:28N 45°06' E 012°35'0 0.0
2017-Nov-22 20:58N 45°06' E 012°35'0 0.0
2017-Nov-22 20:28N 45°06' E 012°35'0 0.0
2017-Nov-22 19:52N 45°06' E 012°35'0 0.0
2017-Nov-22 19:16N 45°06' E 012°35'49 5.3
2017-Nov-22 10:00N 44°24' E 013°12'29112.1 090 / 81020.7 5.4 15.0 9.716.0
2017-Nov-21 10:00N 41°00' E 017°54'30112.5 200 / 91021.010.8 15.0 5.317.0
2017-Nov-20 10:00N 36°42' E 021°12'14812.3 330 / 341012.9 5.4 17.0 7.921.0
2017-Nov-19 22:00N 35°00' E 023°24'332 9.8 330 / 211012.4 5.4 18.013.121.0
2017-Nov-18 12:00N 32°36' E 029°24'0 0.0 310 / 51013.2 5.4 22.022.022.0
2017-Nov-18 09:00N 32°36' E 029°24'125 9.5 310 / 61011.6 5.4 21.018.022.0
2017-Nov-17 19:48N 31°52' E 031°42'414.3
2017-Nov-17 19:31N 31°50' E 031°47'1114.4
2017-Nov-17 18:44N 31°46' E 031°59'1513.7
2017-Nov-17 17:36N 31°34' E 032°11'113.6
2017-Nov-17 17:30N 31°33' E 032°13'713.5
2017-Nov-17 17:01N 31°30' E 032°19'611.9
2017-Nov-17 16:30N 31°26' E 032°24'611.5
2017-Nov-17 16:00N 31°20' E 032°23'510.5
2017-Nov-17 15:30N 31°15' E 032°21'56 8.7
2017-Nov-17 09:04N 30°19' E 032°25'0 7.6
2017-Nov-17 09:00N 30°19' E 032°25'5 7.4
2017-Nov-17 08:22N 30°16' E 032°29'12 7.8
2017-Nov-17 06:50N 30°05' E 032°34'49010.7
2017-Nov-15 09:00N 23°00' E 037°06'   350 / 201010.7 5.4 28.023.929.0

Dump ship's entire track history